createdAt,value
2018-11-07T00:01:02.635Z,9.40
2018-11-07T00:03:30.895Z,9.40
2018-11-07T00:05:59.155Z,9.40
2018-11-07T00:08:34.053Z,9.40
2018-11-07T00:11:02.299Z,9.50
2018-11-07T00:13:30.554Z,9.50
2018-11-07T00:15:58.839Z,9.40
2018-11-07T00:18:27.075Z,9.30
2018-11-07T00:20:55.420Z,9.30
2018-11-07T00:23:23.714Z,9.30
2018-11-07T00:25:52.010Z,9.30
2018-11-07T00:28:20.304Z,9.30
2018-11-07T00:30:48.587Z,9.30
2018-11-07T00:33:16.845Z,9.40
2018-11-07T00:35:45.158Z,9.40
2018-11-07T00:38:13.491Z,9.30
2018-11-07T00:40:41.783Z,9.30
2018-11-07T00:43:10.043Z,9.30
2018-11-07T00:45:38.318Z,9.30
2018-11-07T00:48:06.610Z,9.40
2018-11-07T00:50:34.871Z,9.30
2018-11-07T00:53:03.167Z,9.30
2018-11-07T00:55:31.422Z,9.20
2018-11-07T00:57:59.781Z,9.30
2018-11-07T01:00:28.005Z,9.20
2018-11-07T01:02:56.281Z,9.30
2018-11-07T01:05:24.566Z,9.30
2018-11-07T01:07:52.834Z,9.30
2018-11-07T01:10:21.539Z,9.30
2018-11-07T01:12:50.033Z,9.30
2018-11-07T01:15:18.358Z,9.20
2018-11-07T01:17:46.682Z,9.20
2018-11-07T01:20:15.227Z,9.20
2018-11-07T01:22:43.719Z,9.20
2018-11-07T01:25:12.000Z,9.10
2018-11-07T01:27:40.271Z,9.10
2018-11-07T01:30:10.650Z,9.10
2018-11-07T01:32:39.028Z,9.10
2018-11-07T01:35:07.434Z,9.20
2018-11-07T01:37:35.718Z,9.20
2018-11-07T01:40:05.851Z,9.10
2018-11-07T01:42:34.146Z,9.10
2018-11-07T01:45:02.408Z,9.00
2018-11-07T01:47:30.679Z,9.00
2018-11-07T01:49:58.940Z,9.00
2018-11-07T01:52:27.222Z,8.90
2018-11-07T01:54:55.513Z,8.90
2018-11-07T01:57:23.759Z,8.90
2018-11-07T01:59:52.051Z,9.00
2018-11-07T02:02:20.407Z,9.00
2018-11-07T02:04:48.628Z,9.00
2018-11-07T02:07:16.943Z,9.00
2018-11-07T02:09:45.217Z,8.90
2018-11-07T02:12:13.639Z,8.90
2018-11-07T02:14:41.873Z,8.80
2018-11-07T02:17:10.144Z,8.80
2018-11-07T02:19:38.572Z,8.80
2018-11-07T02:22:06.892Z,8.70
2018-11-07T02:24:35.341Z,8.70
2018-11-07T02:27:03.658Z,8.70
2018-11-07T02:29:32.015Z,8.60
2018-11-07T02:32:00.256Z,8.60
2018-11-07T02:34:28.536Z,8.60
2018-11-07T02:36:56.941Z,8.60
2018-11-07T02:39:25.187Z,8.60
2018-11-07T02:41:53.492Z,8.60
2018-11-07T02:44:21.740Z,8.50
2018-11-07T02:46:50.031Z,8.60
2018-11-07T02:49:18.294Z,8.60
2018-11-07T02:51:46.566Z,8.50
2018-11-07T02:54:14.834Z,8.50
2018-11-07T02:56:43.150Z,8.50
2018-11-07T02:59:11.417Z,8.40
2018-11-07T03:01:39.799Z,8.40
2018-11-07T03:04:08.084Z,8.40
2018-11-07T03:06:36.330Z,8.40
2018-11-07T03:09:07.589Z,8.30
2018-11-07T03:11:35.849Z,8.20
2018-11-07T03:14:04.138Z,8.20
2018-11-07T03:16:32.421Z,8.10
2018-11-07T03:19:00.678Z,8.10
2018-11-07T03:21:29.071Z,8.10
2018-11-07T03:23:57.337Z,8.10
2018-11-07T03:26:25.620Z,8.10
2018-11-07T03:28:53.895Z,8.10
2018-11-07T03:31:22.162Z,8.10
2018-11-07T03:33:50.431Z,8.10
2018-11-07T03:36:18.719Z,7.90
2018-11-07T03:38:47.002Z,8.00
2018-11-07T03:41:15.282Z,7.90
2018-11-07T03:43:43.545Z,7.90
2018-11-07T03:46:11.819Z,7.90
2018-11-07T03:48:40.140Z,7.90
2018-11-07T03:51:08.397Z,7.90
2018-11-07T03:53:36.668Z,7.90
2018-11-07T03:56:05.003Z,7.90
2018-11-07T03:58:33.272Z,7.80
2018-11-07T04:01:01.586Z,7.80
2018-11-07T04:03:29.994Z,7.90
2018-11-07T04:05:58.298Z,7.90
2018-11-07T04:08:26.593Z,7.90
2018-11-07T04:10:54.906Z,7.90
2018-11-07T04:13:23.250Z,7.90
2018-11-07T04:15:51.558Z,7.90
2018-11-07T04:18:19.836Z,8.00
2018-11-07T04:20:48.200Z,8.00
2018-11-07T04:23:16.543Z,7.90
2018-11-07T04:25:44.751Z,7.90
2018-11-07T04:28:13.047Z,7.80
2018-11-07T04:30:41.307Z,7.90
2018-11-07T04:33:09.563Z,7.90
2018-11-07T04:35:37.947Z,7.90
2018-11-07T04:38:06.196Z,7.80
2018-11-07T04:40:34.419Z,7.80
2018-11-07T04:43:02.683Z,7.80
2018-11-07T04:45:37.608Z,7.70
2018-11-07T04:48:06.089Z,7.70
2018-11-07T04:50:34.286Z,7.60
2018-11-07T04:53:02.552Z,7.60
2018-11-07T04:55:30.802Z,7.60
2018-11-07T04:57:59.100Z,7.50
2018-11-07T05:00:27.375Z,7.50
2018-11-07T05:02:55.664Z,7.40
2018-11-07T05:05:23.941Z,7.40
2018-11-07T05:07:52.341Z,7.50
2018-11-07T05:10:20.691Z,7.60
2018-11-07T05:12:48.993Z,7.60
2018-11-07T05:15:17.251Z,7.70
2018-11-07T05:17:45.526Z,7.70
2018-11-07T05:20:13.803Z,7.70
2018-11-07T05:22:42.073Z,7.60
2018-11-07T05:25:11.195Z,7.60
2018-11-07T05:27:39.861Z,7.50
2018-11-07T05:30:09.259Z,7.50
2018-11-07T05:32:37.603Z,7.50
2018-11-07T05:35:06.534Z,7.60
2018-11-07T05:37:34.824Z,7.60
2018-11-07T05:40:03.091Z,7.60
2018-11-07T05:42:31.369Z,7.50
2018-11-07T05:44:59.643Z,7.40
2018-11-07T05:47:27.916Z,7.20
2018-11-07T05:49:56.201Z,7.20
2018-11-07T05:52:24.519Z,7.30
2018-11-07T05:54:52.793Z,7.30
2018-11-07T05:57:21.119Z,7.40
2018-11-07T05:59:49.435Z,7.40
2018-11-07T06:02:17.769Z,7.50
2018-11-07T06:04:46.035Z,7.60
2018-11-07T06:07:14.319Z,7.60
2018-11-07T06:09:42.620Z,7.70
2018-11-07T06:12:10.879Z,7.70
2018-11-07T06:14:39.147Z,7.70
2018-11-07T06:17:07.449Z,7.80
2018-11-07T06:19:35.820Z,7.70
2018-11-07T06:22:04.098Z,7.70
2018-11-07T06:24:32.576Z,7.70
2018-11-07T06:27:00.817Z,7.60
2018-11-07T06:29:29.129Z,7.40
2018-11-07T06:31:57.473Z,7.30
2018-11-07T06:34:25.726Z,7.30
2018-11-07T06:36:53.971Z,7.20
2018-11-07T06:39:22.633Z,7.20
2018-11-07T06:41:50.995Z,7.30
2018-11-07T06:44:19.277Z,7.30
2018-11-07T06:46:47.801Z,7.20
2018-11-07T06:49:16.356Z,7.20
2018-11-07T06:51:44.676Z,7.20
2018-11-07T06:54:12.960Z,7.20
2018-11-07T06:56:41.322Z,7.30
2018-11-07T06:59:09.651Z,7.40
2018-11-07T07:01:38.969Z,7.50
2018-11-07T07:04:07.364Z,7.60
2018-11-07T07:06:35.644Z,7.70
2018-11-07T07:09:05.873Z,7.70
2018-11-07T07:11:34.207Z,7.70
2018-11-07T07:14:02.466Z,7.70
2018-11-07T07:16:31.032Z,7.50
2018-11-07T07:18:59.460Z,7.40
2018-11-07T07:21:27.783Z,7.40
2018-11-07T07:23:56.058Z,7.50
2018-11-07T07:26:24.410Z,7.60
2018-11-07T07:28:52.663Z,7.70
2018-11-07T07:31:20.967Z,7.80
2018-11-07T07:33:49.468Z,8.00
2018-11-07T07:36:18.010Z,8.20
2018-11-07T07:38:46.304Z,8.30
2018-11-07T07:41:14.817Z,8.40
2018-11-07T07:43:43.309Z,8.60
2018-11-07T07:46:11.538Z,8.70
2018-11-07T07:48:39.874Z,9.00
2018-11-07T07:51:08.194Z,9.40
2018-11-07T07:53:36.522Z,9.80
2018-11-07T07:56:04.891Z,10.10
2018-11-07T07:58:33.283Z,10.30
2018-11-07T08:01:01.556Z,10.40
2018-11-07T08:03:29.971Z,10.50
2018-11-07T08:05:58.318Z,10.60
2018-11-07T08:08:26.646Z,10.90
2018-11-07T08:10:55.105Z,11.10
2018-11-07T08:13:23.387Z,11.30
2018-11-07T08:15:51.782Z,11.30
2018-11-07T08:18:20.056Z,11.50
2018-11-07T08:20:48.392Z,11.60
2018-11-07T08:23:16.844Z,11.70
2018-11-07T08:25:45.147Z,11.20
2018-11-07T08:28:13.599Z,11.00
2018-11-07T08:30:41.896Z,11.10
2018-11-07T08:33:10.152Z,11.20
2018-11-07T08:35:38.470Z,11.30
2018-11-07T08:38:06.765Z,11.50
2018-11-07T08:40:35.031Z,11.60
2018-11-07T08:43:03.330Z,11.60
2018-11-07T08:45:31.664Z,11.70
2018-11-07T08:48:00.065Z,11.70
2018-11-07T08:50:28.497Z,11.70
2018-11-07T08:52:56.745Z,11.80
2018-11-07T08:55:25.017Z,11.90
2018-11-07T08:57:53.284Z,12.00
2018-11-07T09:00:23.703Z,11.90
2018-11-07T09:02:52.051Z,12.00
2018-11-07T09:05:21.268Z,12.10
2018-11-07T09:07:49.788Z,12.10
2018-11-07T09:10:19.486Z,12.20
2018-11-07T09:12:47.807Z,12.10
2018-11-07T09:15:18.450Z,12.20
2018-11-07T09:17:46.831Z,12.20
2018-11-07T09:20:17.231Z,12.30
2018-11-07T09:22:45.568Z,12.40
2018-11-07T09:25:14.675Z,12.60
2018-11-07T09:27:43.447Z,12.60
2018-11-07T09:30:14.382Z,12.70
2018-11-07T09:32:42.764Z,12.90
2018-11-07T09:35:11.863Z,13.10
2018-11-07T09:37:40.283Z,13.30
2018-11-07T09:40:11.841Z,13.20
2018-11-07T09:42:40.750Z,13.30
2018-11-07T09:45:11.539Z,13.30
2018-11-07T09:47:40.606Z,13.50
2018-11-07T09:50:09.810Z,13.70
2018-11-07T09:52:38.453Z,13.80
2018-11-07T09:55:08.515Z,14.00
2018-11-07T09:57:36.887Z,14.10
2018-11-07T10:00:07.222Z,14.20
2018-11-07T10:02:35.758Z,14.50
2018-11-07T10:05:04.429Z,14.70
2018-11-07T10:07:32.756Z,14.70
2018-11-07T10:10:01.114Z,14.70
2018-11-07T10:12:29.465Z,14.80
2018-11-07T10:14:57.688Z,14.60
2018-11-07T10:17:25.947Z,14.90
2018-11-07T10:19:54.272Z,15.10
2018-11-07T10:22:22.528Z,15.10
2018-11-07T10:24:50.849Z,15.00
2018-11-07T10:27:19.418Z,14.50
2018-11-07T10:29:47.758Z,14.30
2018-11-07T10:32:15.803Z,14.20
2018-11-07T10:34:44.168Z,14.00
2018-11-07T10:37:12.483Z,13.90
2018-11-07T10:39:40.877Z,13.90
2018-11-07T10:42:09.199Z,14.00
2018-11-07T10:44:37.606Z,14.00
2018-11-07T10:47:05.912Z,13.70
2018-11-07T10:49:34.230Z,13.70
2018-11-07T10:52:02.547Z,13.70
2018-11-07T10:54:30.839Z,13.80
2018-11-07T10:56:59.210Z,13.90
2018-11-07T10:59:27.548Z,14.10
2018-11-07T11:02:04.842Z,14.10
2018-11-07T11:04:33.261Z,14.30
2018-11-07T11:07:01.554Z,14.20
2018-11-07T11:09:29.869Z,14.20
2018-11-07T11:11:58.266Z,14.10
2018-11-07T11:14:26.550Z,13.80
2018-11-07T11:16:54.904Z,13.90
2018-11-07T11:19:23.200Z,13.80
2018-11-07T11:21:51.492Z,13.90
2018-11-07T11:24:19.770Z,14.10
2018-11-07T11:26:48.096Z,14.10
2018-11-07T11:29:16.339Z,14.00
2018-11-07T11:31:44.854Z,14.20
2018-11-07T11:34:13.328Z,14.20
2018-11-07T11:36:41.464Z,14.20
2018-11-07T11:39:11.323Z,14.10
2018-11-07T11:41:39.795Z,14.20
2018-11-07T11:44:08.643Z,14.20
2018-11-07T11:46:36.904Z,14.30
2018-11-07T11:49:05.732Z,14.40
2018-11-07T11:51:34.537Z,14.40
2018-11-07T11:54:02.809Z,14.30
2018-11-07T11:56:31.126Z,14.30
2018-11-07T11:58:59.600Z,14.30
2018-11-07T12:01:27.799Z,14.30
2018-11-07T12:03:56.185Z,14.40
2018-11-07T12:06:24.552Z,14.40
2018-11-07T12:08:52.747Z,14.40
2018-11-07T12:11:21.002Z,14.50
2018-11-07T12:13:49.392Z,14.50
2018-11-07T12:16:17.675Z,14.50
2018-11-07T12:18:45.981Z,14.50
2018-11-07T12:21:14.255Z,14.60
2018-11-07T12:23:42.540Z,14.60
2018-11-07T12:26:10.949Z,14.50
2018-11-07T12:28:39.411Z,14.50
2018-11-07T12:31:07.680Z,14.60
2018-11-07T12:33:36.025Z,14.70
2018-11-07T12:36:04.483Z,14.70
2018-11-07T12:38:33.019Z,14.70
2018-11-07T12:41:01.433Z,14.70
2018-11-07T12:43:29.758Z,14.80
2018-11-07T12:45:58.033Z,14.80
2018-11-07T12:48:26.295Z,14.80
2018-11-07T12:50:54.559Z,15.00
2018-11-07T12:53:22.855Z,15.00
2018-11-07T12:55:51.123Z,15.10
2018-11-07T12:58:19.653Z,15.10
2018-11-07T13:00:47.690Z,15.10
2018-11-07T13:03:15.957Z,15.00
2018-11-07T13:05:44.231Z,15.00
2018-11-07T13:08:12.491Z,15.00
2018-11-07T13:10:40.828Z,15.00
2018-11-07T13:13:09.157Z,15.10
2018-11-07T13:15:37.423Z,15.10
2018-11-07T13:18:06.215Z,15.20
2018-11-07T13:20:34.483Z,15.10
2018-11-07T13:23:02.894Z,15.00
2018-11-07T13:25:31.211Z,15.10
2018-11-07T13:27:59.650Z,15.10
2018-11-07T13:30:27.840Z,15.00
2018-11-07T13:32:56.192Z,15.00
2018-11-07T13:35:24.555Z,15.00
2018-11-07T13:37:53.456Z,15.00
2018-11-07T13:40:22.844Z,15.00
2018-11-07T13:42:51.221Z,15.00
2018-11-07T13:45:20.297Z,15.00
2018-11-07T13:47:49.745Z,14.90
2018-11-07T13:50:18.331Z,15.00
2018-11-07T13:52:46.597Z,15.00
2018-11-07T13:55:15.262Z,15.00
2018-11-07T13:57:43.855Z,14.90
2018-11-07T14:00:15.431Z,14.80
2018-11-07T14:02:44.175Z,14.80
2018-11-07T14:05:12.900Z,14.70
2018-11-07T14:07:41.525Z,14.70
2018-11-07T14:10:12.682Z,14.70
2018-11-07T14:12:41.312Z,14.60
2018-11-07T14:15:11.641Z,14.60
2018-11-07T14:17:39.954Z,14.30
2018-11-07T14:20:08.401Z,14.20
2018-11-07T14:22:36.913Z,14.20
2018-11-07T14:25:05.888Z,14.20
2018-11-07T14:27:34.365Z,14.10
2018-11-07T14:30:03.171Z,14.10
2018-11-07T14:32:31.977Z,14.10
2018-11-07T14:35:00.342Z,14.00
2018-11-07T14:37:28.619Z,14.00
2018-11-07T14:39:56.992Z,14.00
2018-11-07T14:42:25.240Z,14.00
2018-11-07T14:44:53.562Z,14.10
2018-11-07T14:47:22.051Z,14.10
2018-11-07T14:49:50.160Z,14.00
2018-11-07T14:52:18.502Z,14.00
2018-11-07T14:54:46.801Z,14.00
2018-11-07T14:57:15.136Z,14.00
2018-11-07T14:59:43.431Z,14.00
2018-11-07T15:02:11.738Z,13.90
2018-11-07T15:04:40.088Z,13.70
2018-11-07T15:07:08.437Z,13.80
2018-11-07T15:09:36.773Z,13.70
2018-11-07T15:12:05.985Z,13.70
2018-11-07T15:14:34.382Z,13.70
2018-11-07T15:17:02.629Z,13.60
2018-11-07T15:19:30.968Z,13.50
2018-11-07T15:22:04.304Z,13.50
2018-11-07T15:24:33.839Z,13.50
2018-11-07T15:27:10.627Z,13.40
2018-11-07T15:29:44.521Z,13.40
2018-11-07T15:32:13.310Z,13.40
2018-11-07T15:34:49.661Z,13.40
2018-11-07T15:37:19.601Z,13.30
2018-11-07T15:39:48.458Z,13.30
2018-11-07T15:42:16.882Z,13.20
2018-11-07T15:44:45.382Z,13.20
2018-11-07T15:47:13.779Z,13.20
2018-11-07T15:49:42.674Z,13.10
2018-11-07T15:52:11.350Z,13.20
2018-11-07T15:54:39.626Z,13.10
2018-11-07T15:57:07.956Z,13.10
2018-11-07T15:59:36.282Z,13.00
2018-11-07T16:02:04.842Z,12.90
2018-11-07T16:04:33.142Z,12.70
2018-11-07T16:07:01.515Z,12.70
2018-11-07T16:09:29.811Z,12.60
2018-11-07T16:11:58.151Z,12.70
2018-11-07T16:14:26.706Z,12.70
2018-11-07T16:16:54.977Z,12.60
2018-11-07T16:19:23.288Z,12.50
2018-11-07T16:21:51.592Z,12.60
2018-11-07T16:24:19.968Z,12.50
2018-11-07T16:26:48.353Z,12.50
2018-11-07T16:29:16.840Z,12.60
2018-11-07T16:31:45.155Z,12.60
2018-11-07T16:34:13.546Z,12.60
2018-11-07T16:36:41.928Z,12.60
2018-11-07T16:39:11.159Z,12.60
2018-11-07T16:41:39.665Z,12.60
2018-11-07T16:44:07.929Z,12.50
2018-11-07T16:46:36.272Z,12.60
2018-11-07T16:49:04.774Z,12.50
2018-11-07T16:51:33.487Z,12.50
2018-11-07T16:54:02.326Z,12.50
2018-11-07T16:56:30.751Z,12.40
2018-11-07T16:58:59.364Z,12.50
2018-11-07T17:01:27.641Z,12.50
2018-11-07T17:03:55.953Z,12.50
2018-11-07T17:06:24.304Z,12.50
2018-11-07T17:08:52.746Z,12.50
2018-11-07T17:11:21.125Z,12.50
2018-11-07T17:13:49.397Z,12.60
2018-11-07T17:16:17.679Z,12.60
2018-11-07T17:18:45.994Z,12.60
2018-11-07T17:21:14.311Z,12.60
2018-11-07T17:23:42.684Z,12.60
2018-11-07T17:26:11.068Z,12.60
2018-11-07T17:28:39.342Z,12.60
2018-11-07T17:31:07.614Z,12.60
2018-11-07T17:33:35.964Z,12.60
2018-11-07T17:36:04.502Z,12.60
2018-11-07T17:38:32.912Z,12.60
2018-11-07T17:41:01.102Z,12.60
2018-11-07T17:43:29.393Z,12.60
2018-11-07T17:45:57.676Z,12.60
2018-11-07T17:48:25.999Z,12.60
2018-11-07T17:50:54.336Z,12.60
2018-11-07T17:53:22.734Z,12.60
2018-11-07T17:55:51.107Z,12.70
2018-11-07T17:58:19.379Z,12.70
2018-11-07T18:00:47.683Z,12.70
2018-11-07T18:03:15.995Z,12.70
2018-11-07T18:05:44.267Z,12.70
2018-11-07T18:08:12.595Z,12.80
2018-11-07T18:10:40.866Z,12.80
2018-11-07T18:13:09.205Z,12.80
2018-11-07T18:15:37.547Z,12.80
2018-11-07T18:18:06.215Z,12.80
2018-11-07T18:20:34.468Z,12.70
2018-11-07T18:23:02.846Z,12.70
2018-11-07T18:25:31.290Z,12.70
2018-11-07T18:27:59.794Z,12.70
2018-11-07T18:30:28.091Z,12.70
2018-11-07T18:32:56.362Z,12.70
2018-11-07T18:35:24.741Z,12.70
2018-11-07T18:37:53.471Z,12.70
2018-11-07T18:40:22.687Z,12.60
2018-11-07T18:42:51.100Z,12.60
2018-11-07T18:45:19.380Z,12.60
2018-11-07T18:47:48.055Z,12.50
2018-11-07T18:50:18.078Z,12.40
2018-11-07T18:52:46.243Z,12.40
2018-11-07T18:55:15.619Z,12.30
2018-11-07T18:57:44.522Z,12.30
2018-11-07T19:00:15.142Z,12.20
2018-11-07T19:02:44.060Z,12.10
2018-11-07T19:05:12.654Z,12.10
2018-11-07T19:07:41.232Z,12.10
2018-11-07T19:10:13.599Z,12.10
2018-11-07T19:12:42.257Z,12.10
2018-11-07T19:15:14.118Z,12.00
2018-11-07T19:17:43.462Z,11.90
2018-11-07T19:20:13.256Z,11.80
2018-11-07T19:22:41.719Z,11.80
2018-11-07T19:25:12.932Z,11.80
2018-11-07T19:27:41.340Z,11.80
2018-11-07T19:30:15.706Z,11.80
2018-11-07T19:32:45.265Z,11.80
2018-11-07T19:35:14.868Z,11.80
2018-11-07T19:37:43.822Z,11.70
2018-11-07T19:40:13.397Z,11.80
2018-11-07T19:42:42.116Z,11.80
2018-11-07T19:45:12.258Z,11.70
2018-11-07T19:47:40.757Z,11.70
2018-11-07T19:50:11.760Z,11.70
2018-11-07T19:52:40.278Z,11.70
2018-11-07T19:55:11.248Z,11.80
2018-11-07T19:57:39.795Z,11.70
2018-11-07T20:00:11.113Z,11.70
2018-11-07T20:02:39.446Z,11.60
2018-11-07T20:05:07.889Z,11.60
2018-11-07T20:07:37.059Z,11.50
2018-11-07T20:10:07.752Z,11.50
2018-11-07T20:12:36.043Z,11.50
2018-11-07T20:15:04.921Z,11.50
2018-11-07T20:17:33.283Z,11.50
2018-11-07T20:20:01.615Z,11.50
2018-11-07T20:22:30.236Z,11.50
2018-11-07T20:24:58.658Z,11.50
2018-11-07T20:27:27.119Z,11.60
2018-11-07T20:29:55.523Z,11.60
2018-11-07T20:32:24.640Z,11.60
2018-11-07T20:34:53.163Z,11.60
2018-11-07T20:37:21.526Z,11.60
2018-11-07T20:39:50.237Z,11.60
2018-11-07T20:42:18.650Z,11.70
2018-11-07T20:44:47.156Z,11.60
2018-11-07T20:47:15.594Z,11.60
2018-11-07T20:49:44.085Z,11.50
2018-11-07T20:52:12.370Z,11.50
2018-11-07T20:54:40.776Z,11.50
2018-11-07T20:57:09.245Z,11.40
2018-11-07T20:59:37.564Z,11.40
2018-11-07T21:02:05.894Z,11.30
2018-11-07T21:04:34.273Z,11.30
2018-11-07T21:07:02.723Z,11.10
2018-11-07T21:09:31.397Z,11.00
2018-11-07T21:11:59.908Z,11.00
2018-11-07T21:14:28.381Z,11.00
2018-11-07T21:16:56.863Z,10.90
2018-11-07T21:19:25.071Z,10.90
2018-11-07T21:21:53.942Z,11.00
2018-11-07T21:24:22.331Z,11.00
2018-11-07T21:26:50.794Z,11.00
2018-11-07T21:29:19.137Z,11.00
2018-11-07T21:31:47.767Z,10.90
2018-11-07T21:34:16.316Z,10.90
2018-11-07T21:36:44.631Z,10.80
2018-11-07T21:39:13.810Z,10.80
2018-11-07T21:41:42.227Z,10.70
2018-11-07T21:44:10.697Z,10.60
2018-11-07T21:46:45.507Z,10.40
2018-11-07T21:49:13.956Z,10.30
2018-11-07T21:51:42.264Z,10.20
2018-11-07T21:54:10.550Z,10.10
2018-11-07T21:56:38.857Z,10.00
2018-11-07T21:59:07.162Z,10.00
2018-11-07T22:01:35.465Z,10.10
2018-11-07T22:04:03.830Z,10.10
2018-11-07T22:06:32.293Z,10.10
2018-11-07T22:09:05.899Z,10.10
2018-11-07T22:11:34.281Z,10.20
2018-11-07T22:14:02.568Z,10.30
2018-11-07T22:16:31.064Z,10.20
2018-11-07T22:18:59.339Z,10.20
2018-11-07T22:21:27.603Z,10.20
2018-11-07T22:23:55.942Z,10.00
2018-11-07T22:26:24.178Z,9.80
2018-11-07T22:28:52.459Z,9.70
2018-11-07T22:31:20.771Z,9.60
2018-11-07T22:33:49.007Z,9.60
2018-11-07T22:36:17.277Z,9.60
2018-11-07T22:38:45.527Z,9.70
2018-11-07T22:41:13.867Z,9.70
2018-11-07T22:43:42.146Z,9.70
2018-11-07T22:46:10.483Z,9.80
2018-11-07T22:48:38.958Z,9.90
2018-11-07T22:51:07.251Z,9.90
2018-11-07T22:53:35.700Z,9.70
2018-11-07T22:56:04.008Z,9.50
2018-11-07T22:58:32.264Z,9.50
2018-11-07T23:01:06.058Z,9.50
2018-11-07T23:03:34.366Z,9.50
2018-11-07T23:06:02.628Z,9.60
2018-11-07T23:08:31.015Z,9.60
2018-11-07T23:10:59.306Z,9.70
2018-11-07T23:13:27.629Z,9.70
2018-11-07T23:15:55.993Z,9.80
2018-11-07T23:18:24.315Z,9.80
2018-11-07T23:20:52.575Z,9.80
2018-11-07T23:23:20.891Z,9.80
2018-11-07T23:25:49.198Z,9.80
2018-11-07T23:28:17.507Z,9.80
2018-11-07T23:30:45.800Z,9.80
2018-11-07T23:33:14.078Z,9.80
2018-11-07T23:35:42.372Z,9.90
2018-11-07T23:38:10.658Z,10.00
2018-11-07T23:40:38.992Z,10.00
2018-11-07T23:43:07.275Z,10.00
2018-11-07T23:45:35.598Z,10.00
2018-11-07T23:48:03.862Z,10.00
2018-11-07T23:50:32.116Z,9.90
2018-11-07T23:53:00.387Z,9.80
2018-11-07T23:55:28.640Z,9.70
2018-11-07T23:57:56.904Z,9.80
